Time;durP1;ratioP1;P1;durP2;ratioP2;P2;SDS_P1;SDS_P2;PMS_P1;PMS_P2;Temp;Humidity;BMP_temperature;BMP_pressure;BME280_temperature;BME280_humidity;BME280_pressure;Samples;Min_cycle;Max_cycle;Signal;HPM_P1;HPM_P2
2022/05/30 00:00:22;;;;;;;3.87;2.13;;;10.50;99.90;;;;;;5006309;28;20905;-71
2022/05/30 00:02:49;;;;;;;3.23;2.33;;;10.50;99.90;;;;;;5008019;28;20754;-71
2022/05/30 00:05:15;;;;;;;2.50;2.40;;;10.50;99.90;;;;;;5006268;28;20409;-71
2022/05/30 00:07:41;;;;;;;3.10;2.80;;;10.30;99.90;;;;;;5006458;28;20411;-71
2022/05/30 00:10:08;;;;;;;3.00;2.80;;;10.20;99.90;;;;;;5006909;28;20564;-71
2022/05/30 00:12:35;;;;;;;5.63;2.77;;;10.10;99.90;;;;;;5006621;28;21402;-71
2022/05/30 00:15:01;;;;;;;3.70;3.40;;;10.20;99.90;;;;;;5006420;28;20430;-71
2022/05/30 00:17:27;;;;;;;2.83;2.40;;;10.20;99.90;;;;;;5007314;28;20484;-71
2022/05/30 00:19:52;;;;;;;4.13;2.97;;;10.10;99.90;;;;;;5007123;28;20226;-71
2022/05/30 00:22:18;;;;;;;6.90;3.03;;;10.00;99.90;;;;;;5007619;28;20229;-71
2022/05/30 00:24:44;;;;;;;3.53;2.80;;;9.90;99.90;;;;;;5005772;28;20606;-71
2022/05/30 00:27:11;;;;;;;3.63;3.00;;;9.90;99.90;;;;;;5007403;28;20174;-71
2022/05/30 00:29:37;;;;;;;3.53;3.23;;;9.90;99.90;;;;;;5006872;28;20305;-71
2022/05/30 00:32:05;;;;;;;3.77;2.83;;;9.90;99.90;;;;;;5007290;28;20418;-71
2022/05/30 00:34:31;;;;;;;4.17;3.47;;;9.80;99.90;;;;;;5007023;28;20428;-71
2022/05/30 00:36:57;;;;;;;3.57;3.20;;;9.80;99.90;;;;;;5006957;28;20486;-71
2022/05/30 00:39:23;;;;;;;4.10;2.93;;;9.70;99.90;;;;;;5007107;28;20472;-72
2022/05/30 00:41:48;;;;;;;3.53;2.90;;;9.60;99.90;;;;;;5007384;28;20197;-71
2022/05/30 00:44:14;;;;;;;5.13;3.23;;;9.70;99.90;;;;;;5007472;28;20233;-71
2022/05/30 00:46:39;;;;;;;4.20;3.20;;;9.80;99.90;;;;;;5007478;28;20183;-71
2022/05/30 00:49:09;;;;;;;3.53;3.23;;;9.70;99.90;;;;;;5007737;28;20205;-71
2022/05/30 00:51:41;;;;;;;3.93;3.40;;;9.70;99.90;;;;;;5008077;28;20671;-71
2022/05/30 00:54:11;;;;;;;4.60;2.90;;;9.70;99.90;;;;;;5007316;28;20424;-71
2022/05/30 00:56:41;;;;;;;3.90;3.00;;;9.70;99.90;;;;;;5006521;28;20413;-71
2022/05/30 00:59:08;;;;;;;4.47;3.50;;;9.70;99.90;;;;;;5006353;28;20466;-71
2022/05/30 01:01:34;;;;;;;3.40;2.90;;;9.60;99.90;;;;;;5005415;28;20468;-72
2022/05/30 01:06:51;;;;;;;5.53;4.20;;;9.70;99.90;;;;;;5007627;28;20563;-71
2022/05/30 01:09:22;;;;;;;6.07;4.20;;;9.60;99.90;;;;;;5005109;28;21125;-71
2022/05/30 01:12:15;;;;;;;3.47;3.20;;;9.60;99.90;;;;;;5006094;28;21043;-72
2022/05/30 01:14:43;;;;;;;5.27;3.83;;;9.60;99.90;;;;;;5004247;28;20489;-72
2022/05/30 01:17:12;;;;;;;4.73;3.83;;;9.70;99.90;;;;;;5004954;28;20413;-71
2022/05/30 01:20:05;;;;;;;3.40;3.10;;;9.70;99.90;;;;;;5006250;28;20461;-71
2022/05/30 01:22:55;;;;;;;3.70;3.40;;;9.70;99.90;;;;;;5005250;28;20415;-71
2022/05/30 01:26:13;;;;;;;5.73;3.60;;;9.70;99.90;;;;;;5006082;28;20452;-71
2022/05/30 01:28:49;;;;;;;5.37;3.70;;;9.70;99.90;;;;;;4948459;28;20554;-71
2022/05/30 01:31:16;;;;;;;4.30;3.90;;;9.70;99.90;;;;;;4964675;28;20418;-71
2022/05/30 01:33:42;;;;;;;4.30;3.43;;;9.60;99.90;;;;;;4990711;28;20429;-71
2022/05/30 01:36:09;;;;;;;7.47;4.67;;;9.60;99.90;;;;;;5005985;28;20469;-72
2022/05/30 01:38:35;;;;;;;4.00;3.70;;;9.60;99.90;;;;;;5005377;28;20517;-71
2022/05/30 01:41:01;;;;;;;4.50;3.60;;;9.60;99.90;;;;;;5005643;28;20423;-71
2022/05/30 01:43:27;;;;;;;3.77;3.47;;;9.70;99.90;;;;;;5005669;28;20926;-72
2022/05/30 01:45:53;;;;;;;4.23;3.83;;;9.70;99.90;;;;;;5006132;28;20550;-71
2022/05/30 01:48:21;;;;;;;4.97;3.80;;;9.70;99.90;;;;;;5005681;28;20422;-72
2022/05/30 01:50:47;;;;;;;3.47;3.20;;;9.70;99.90;;;;;;5007069;28;20437;-73
2022/05/30 01:53:13;;;;;;;4.30;3.90;;;9.60;99.90;;;;;;5006950;28;20827;-69
2022/05/30 01:55:39;;;;;;;4.73;3.67;;;9.70;99.90;;;;;;5006157;28;20187;-71
2022/05/30 01:58:05;;;;;;;5.93;3.73;;;9.70;99.90;;;;;;5006935;28;20421;-73
2022/05/30 02:00:31;;;;;;;5.17;3.80;;;9.70;99.90;;;;;;5006806;28;20463;-72
2022/05/30 02:02:58;;;;;;;4.00;3.60;;;9.70;99.90;;;;;;5007154;28;20416;-72
2022/05/30 02:05:23;;;;;;;6.40;4.53;;;9.70;99.90;;;;;;5007207;28;20412;-71
2022/05/30 02:07:49;;;;;;;3.73;3.43;;;9.50;99.90;;;;;;5006838;28;20412;-71
2022/05/30 02:10:15;;;;;;;5.33;4.20;;;9.40;99.90;;;;;;5006705;28;20224;-70
2022/05/30 02:12:41;;;;;;;7.33;3.57;;;9.40;99.90;;;;;;5007137;28;20654;-72
2022/05/30 02:15:07;;;;;;;4.00;3.70;;;9.40;99.90;;;;;;5006877;28;20447;-71
2022/05/30 02:17:34;;;;;;;4.90;4.40;;;9.40;99.90;;;;;;5004755;28;20211;-73
2022/05/30 02:20:00;;;;;;;4.37;3.97;;;9.40;99.90;;;;;;5005396;28;20471;-71
2022/05/30 02:22:29;;;;;;;5.93;4.20;;;9.40;99.90;;;;;;5004704;28;20944;-70
2022/05/30 02:24:59;;;;;;;4.40;3.63;;;9.40;99.90;;;;;;5005178;28;20258;-70
2022/05/30 02:27:25;;;;;;;4.33;3.93;;;9.40;99.90;;;;;;5003895;28;20412;-72
2022/05/30 02:29:52;;;;;;;4.07;3.50;;;9.40;99.90;;;;;;5005433;28;20978;-70
2022/05/30 02:32:18;;;;;;;4.70;3.47;;;9.40;99.90;;;;;;5004819;28;20828;-72
2022/05/30 02:37:28;;;;;;;3.50;3.20;;;9.40;99.90;;;;;;5005517;28;20181;-71
2022/05/30 02:39:54;;;;;;;4.40;4.00;;;9.40;99.90;;;;;;5005206;28;20468;-70
2022/05/30 02:42:19;;;;;;;3.63;3.10;;;9.50;99.90;;;;;;5005393;28;20196;-71
2022/05/30 02:44:45;;;;;;;3.43;3.23;;;9.50;99.90;;;;;;5005417;28;20560;-72
2022/05/30 02:47:11;;;;;;;4.03;3.73;;;9.50;99.90;;;;;;5005212;28;20553;-71
2022/05/30 02:49:37;;;;;;;4.67;3.40;;;9.50;99.90;;;;;;5004569;28;20211;-71
2022/05/30 02:52:03;;;;;;;4.13;2.80;;;9.50;99.90;;;;;;5004045;28;20418;-70
2022/05/30 02:54:29;;;;;;;7.00;3.67;;;9.50;99.90;;;;;;5004592;28;20425;-69
2022/05/30 02:56:57;;;;;;;3.80;3.40;;;9.50;99.90;;;;;;5004748;28;20773;-73
2022/05/30 02:59:25;;;;;;;3.93;3.57;;;9.40;99.90;;;;;;5003166;28;20301;-71
2022/05/30 03:01:50;;;;;;;3.50;3.20;;;9.40;99.90;;;;;;5004535;28;20989;-71
2022/05/30 03:04:17;;;;;;;4.17;3.77;;;9.40;99.90;;;;;;5004706;28;20444;-72
2022/05/30 03:06:43;;;;;;;3.43;3.13;;;9.40;99.90;;;;;;5004755;28;20560;-71
2022/05/30 03:09:10;;;;;;;5.30;2.97;;;9.40;99.90;;;;;;5004633;28;20483;-72
2022/05/30 03:11:36;;;;;;;3.50;3.20;;;9.40;99.90;;;;;;5004873;28;20412;-72
2022/05/30 03:14:03;;;;;;;4.70;3.73;;;9.40;99.90;;;;;;5004566;28;20420;-70
2022/05/30 03:16:28;;;;;;;3.93;3.63;;;9.40;99.90;;;;;;5004502;28;20850;-72
2022/05/30 03:18:54;;;;;;;4.40;3.87;;;9.30;99.90;;;;;;5004058;28;20899;-72
2022/05/30 03:21:20;;;;;;;3.93;3.60;;;9.00;99.90;;;;;;5004453;28;20436;-72
2022/05/30 03:23:45;;;;;;;3.93;3.60;;;9.00;99.90;;;;;;5004611;28;20183;-72
2022/05/30 03:26:12;;;;;;;4.37;3.97;;;9.00;99.90;;;;;;5004624;28;20463;-72
2022/05/30 03:28:40;;;;;;;4.67;3.67;;;9.00;99.90;;;;;;5004526;28;20206;-73
2022/05/30 03:31:07;;;;;;;3.50;3.20;;;9.10;99.90;;;;;;5002882;28;20425;-72
2022/05/30 03:33:37;;;;;;;3.20;3.00;;;9.00;99.90;;;;;;5003266;28;20417;-71
2022/05/30 03:36:10;;;;;;;4.70;3.80;;;9.00;99.90;;;;;;5003365;28;21004;-71
2022/05/30 03:38:35;;;;;;;3.93;3.60;;;8.90;99.90;;;;;;5004508;28;20765;-71
2022/05/30 03:41:01;;;;;;;3.70;3.40;;;9.00;99.90;;;;;;5019335;28;20517;-72
2022/05/30 03:43:27;;;;;;;6.37;3.07;;;8.90;99.90;;;;;;5004487;28;20260;-71
2022/05/30 03:45:52;;;;;;;4.23;3.30;;;8.80;99.90;;;;;;5004366;28;20539;-72
2022/05/30 03:48:21;;;;;;;4.03;3.63;;;8.90;99.90;;;;;;5004393;28;20207;-71
2022/05/30 03:50:48;;;;;;;3.97;3.63;;;8.90;99.90;;;;;;5004404;28;20209;-72
2022/05/30 03:53:14;;;;;;;7.33;6.20;;;8.90;99.90;;;;;;5003239;28;20479;-72
2022/05/30 03:55:43;;;;;;;4.00;3.60;;;8.80;99.90;;;;;;5003211;28;20424;-72
2022/05/30 03:58:10;;;;;;;5.77;4.67;;;8.80;99.90;;;;;;5004553;28;20414;-72
2022/05/30 04:00:38;;;;;;;4.77;4.37;;;8.90;99.90;;;;;;5004530;28;20555;-72
2022/05/30 04:03:04;;;;;;;3.70;3.17;;;9.00;99.90;;;;;;5004639;28;20677;-71
2022/05/30 04:05:30;;;;;;;7.07;3.73;;;9.00;99.90;;;;;;5003456;28;20414;-70
2022/05/30 04:07:57;;;;;;;6.30;4.40;;;8.90;99.90;;;;;;5004048;28;21376;-72
2022/05/30 04:10:24;;;;;;;5.20;4.70;;;8.90;99.90;;;;;;5003358;28;20466;-71
2022/05/30 04:13:06;;;;;;;6.87;5.33;;;8.90;99.90;;;;;;5005556;28;20464;-71
2022/05/30 04:15:32;;;;;;;5.30;4.90;;;8.80;99.90;;;;;;5004781;28;20402;-70
2022/05/30 04:17:58;;;;;;;7.00;6.40;;;8.80;99.90;;;;;;5003233;28;20427;-71
2022/05/30 04:20:24;;;;;;;6.40;5.80;;;8.90;99.90;;;;;;5003909;28;20471;-73
2022/05/30 04:22:49;;;;;;;7.13;6.53;;;9.00;99.90;;;;;;5004517;28;20178;-70
2022/05/30 04:25:15;;;;;;;6.43;5.77;;;9.00;99.90;;;;;;5004505;28;20184;-72
2022/05/30 04:27:41;;;;;;;6.83;6.13;;;9.10;99.90;;;;;;5005184;28;20176;-70
2022/05/30 04:30:08;;;;;;;5.73;5.23;;;9.10;99.90;;;;;;5004451;28;20197;-72
2022/05/30 04:32:36;;;;;;;7.10;6.20;;;9.10;99.90;;;;;;5008398;28;20548;-72
2022/05/30 04:35:03;;;;;;;8.70;5.97;;;9.20;99.90;;;;;;5008612;28;20466;-72
2022/05/30 04:37:29;;;;;;;8.83;6.80;;;9.20;99.90;;;;;;5007562;28;20433;-72
2022/05/30 04:39:55;;;;;;;7.60;6.40;;;9.30;99.90;;;;;;5011465;28;20860;-71
2022/05/30 04:42:21;;;;;;;10.43;7.40;;;9.30;99.90;;;;;;5013583;28;20422;-70
2022/05/30 04:44:47;;;;;;;8.07;6.73;;;9.30;99.90;;;;;;5013242;28;20185;-72
2022/05/30 04:47:13;;;;;;;8.00;7.20;;;9.30;99.90;;;;;;5013423;28;20178;-72
2022/05/30 04:49:39;;;;;;;8.57;7.67;;;9.30;99.90;;;;;;5012639;28;20201;-73
2022/05/30 04:52:07;;;;;;;6.53;5.97;;;9.40;99.90;;;;;;5013371;28;20321;-71
2022/05/30 04:54:33;;;;;;;6.27;5.60;;;9.40;99.90;;;;;;5012902;28;20445;-71
2022/05/30 04:56:59;;;;;;;9.03;5.57;;;9.50;99.90;;;;;;5012075;28;20421;-72
2022/05/30 04:59:25;;;;;;;5.30;4.90;;;9.50;99.90;;;;;;5011945;28;20514;-72
2022/05/30 05:01:51;;;;;;;5.57;5.07;;;9.60;99.90;;;;;;5008996;28;20237;-71
2022/05/30 05:04:16;;;;;;;8.20;6.20;;;9.70;99.90;;;;;;5007143;28;20413;-71
2022/05/30 05:06:45;;;;;;;7.83;5.43;;;9.80;99.90;;;;;;5007078;28;20187;-71
2022/05/30 05:09:17;;;;;;;5.80;4.70;;;9.80;99.90;;;;;;5034137;22;20204;-70
2022/05/30 05:11:43;;;;;;;4.77;4.37;;;9.90;99.90;;;;;;5005080;28;20530;-71
2022/05/30 05:14:09;;;;;;;5.90;5.40;;;10.00;99.90;;;;;;5014115;28;20419;-70
2022/05/30 05:16:35;;;;;;;5.83;5.30;;;10.10;99.90;;;;;;5021575;28;20446;-70
2022/05/30 05:19:02;;;;;;;5.40;5.00;;;10.30;99.90;;;;;;5021983;28;20452;-71
2022/05/30 05:21:31;;;;;;;5.20;4.70;;;10.30;99.90;;;;;;5011786;28;20515;-72
2022/05/30 05:23:58;;;;;;;9.13;5.37;;;10.40;99.90;;;;;;5020588;28;20444;-71
2022/05/30 05:26:24;;;;;;;5.63;5.03;;;10.60;99.90;;;;;;5022792;28;20428;-71
2022/05/30 05:28:50;;;;;;;5.20;4.70;;;10.70;99.90;;;;;;5010909;28;20591;-71
2022/05/30 05:31:27;;;;;;;6.70;5.67;;;10.80;99.90;;;;;;5021172;28;20520;-70
2022/05/30 05:33:57;;;;;;;8.13;5.50;;;10.90;99.90;;;;;;5011547;28;20171;-71
2022/05/30 05:36:25;;;;;;;6.47;5.30;;;11.00;99.90;;;;;;5017436;28;20436;-69
2022/05/30 05:38:51;;;;;;;5.80;5.30;;;11.10;99.90;;;;;;5011047;28;20792;-69
2022/05/30 05:41:17;;;;;;;8.80;6.10;;;11.20;99.90;;;;;;5010862;28;20529;-72
2022/05/30 05:43:43;;;;;;;6.27;5.67;;;11.30;99.90;;;;;;5022277;28;20416;-70
2022/05/30 05:46:16;;;;;;;5.80;5.30;;;11.30;99.90;;;;;;5017814;28;20421;-70
2022/05/30 05:48:42;;;;;;;7.97;5.97;;;11.40;99.90;;;;;;5023808;28;20189;-71
2022/05/30 05:51:07;;;;;;;9.80;6.13;;;11.50;99.90;;;;;;5026820;28;20443;-71
2022/05/30 05:53:33;;;;;;;7.67;6.33;;;11.50;99.90;;;;;;5010411;28;20187;-70
2022/05/30 05:55:59;;;;;;;7.00;6.20;;;11.00;99.90;;;;;;5011504;28;20213;-71
2022/05/30 05:58:24;;;;;;;6.47;5.87;;;10.80;99.90;;;;;;5018468;28;20417;-70
2022/05/30 06:00:50;;;;;;;6.57;5.97;;;11.10;99.90;;;;;;5015696;28;20249;-72
2022/05/30 06:03:16;;;;;;;6.30;5.70;;;11.00;99.90;;;;;;5026580;28;20179;-71
2022/05/30 06:05:41;;;;;;;8.47;6.50;;;10.80;99.90;;;;;;5020995;28;20186;-70
2022/05/30 06:08:10;;;;;;;11.97;7.00;;;10.80;99.90;;;;;;5018644;28;20211;-70
2022/05/30 06:11:04;;;;;;;8.07;7.27;;;10.90;99.90;;;;;;5012972;28;20211;-70
2022/05/30 06:13:21;;;;;;;6.93;6.23;;;10.90;99.90;;;;;;5010201;28;20428;-70
2022/05/30 06:15:47;;;;;;;7.67;6.63;;;11.40;99.90;;;;;;5026350;28;20423;-70
2022/05/30 06:18:13;;;;;;;7.83;6.83;;;11.50;99.90;;;;;;5021413;28;20215;-72
2022/05/30 06:20:41;;;;;;;9.33;6.07;;;11.80;99.90;;;;;;5018340;28;20221;-72
2022/05/30 06:23:07;;;;;;;8.03;6.43;;;11.70;99.90;;;;;;5015562;28;20608;-71
2022/05/30 06:25:32;;;;;;;8.40;6.67;;;11.70;99.90;;;;;;5015718;28;20425;-69
2022/05/30 06:27:58;;;;;;;7.50;6.80;;;11.30;99.90;;;;;;5020199;28;20184;-71
2022/05/30 06:30:23;;;;;;;6.83;6.33;;;11.20;99.90;;;;;;5018673;28;21252;-70
2022/05/30 06:32:49;;;;;;;7.67;6.23;;;11.20;99.90;;;;;;5007986;28;20181;-70
2022/05/30 06:35:14;;;;;;;7.23;6.40;;;11.30;99.90;;;;;;5011233;28;20191;-70
2022/05/30 06:37:40;;;;;;;8.60;7.70;;;11.60;99.90;;;;;;5013602;28;20233;-70
2022/05/30 06:40:06;;;;;;;7.53;6.83;;;11.90;99.90;;;;;;5011155;28;20217;-70
2022/05/30 06:42:32;;;;;;;10.20;7.83;;;11.90;99.90;;;;;;5021227;28;20175;-70
2022/05/30 06:44:58;;;;;;;8.40;7.60;;;11.80;99.90;;;;;;5007007;28;20410;-71
2022/05/30 06:47:23;;;;;;;8.40;7.57;;;11.80;99.90;;;;;;5010224;28;20218;-70
2022/05/30 06:49:51;;;;;;;9.37;7.20;;;12.00;99.90;;;;;;5023637;28;20434;-70
2022/05/30 06:52:17;;;;;;;7.97;6.70;;;12.10;99.90;;;;;;5025093;28;20422;-71
2022/05/30 06:54:42;;;;;;;7.37;6.67;;;12.20;99.90;;;;;;5020532;28;20422;-71
2022/05/30 06:59:53;;;;;;;8.07;7.00;;;12.00;99.90;;;;;;5018758;28;20258;-71
2022/05/30 07:02:18;;;;;;;8.73;7.07;;;12.20;99.90;;;;;;5025041;28;20421;-71
2022/05/30 07:04:44;;;;;;;9.83;7.80;;;12.20;99.90;;;;;;5020423;28;20242;-72
2022/05/30 07:07:10;;;;;;;9.60;7.03;;;12.10;99.90;;;;;;5026875;28;20174;-71
2022/05/30 07:09:37;;;;;;;8.20;6.73;;;12.40;99.90;;;;;;5020208;28;20215;-71
2022/05/30 07:12:02;;;;;;;10.30;6.63;;;12.50;99.90;;;;;;5018473;28;20225;-70
2022/05/30 07:14:28;;;;;;;9.63;6.60;;;12.50;99.90;;;;;;5016765;28;20926;-70
2022/05/30 07:16:54;;;;;;;7.87;7.00;;;12.70;99.90;;;;;;5010777;28;20468;-70
2022/05/30 07:19:19;;;;;;;8.47;6.77;;;13.00;99.90;;;;;;5016669;28;20713;-69
2022/05/30 07:21:45;;;;;;;8.23;6.43;;;12.70;99.90;;;;;;5015460;28;20167;-70
2022/05/30 07:24:11;;;;;;;8.03;6.30;;;12.70;99.90;;;;;;5011183;28;20237;-69
2022/05/30 07:26:37;;;;;;;8.13;7.00;;;12.90;99.90;;;;;;5020074;28;20176;-69
2022/05/30 07:29:03;;;;;;;7.43;5.40;;;13.00;99.90;;;;;;5014448;28;21084;-69
2022/05/30 07:31:29;;;;;;;7.10;6.40;;;13.00;99.90;;;;;;5024488;28;20248;-69
2022/05/30 07:33:55;;;;;;;6.60;5.27;;;13.10;99.90;;;;;;5018588;28;20458;-69
2022/05/30 07:36:27;;;;;;;7.40;6.17;;;13.20;99.90;;;;;;5012670;28;20438;-69
2022/05/30 07:38:54;;;;;;;4.57;4.13;;;13.30;99.90;;;;;;5007338;28;20902;-69
2022/05/30 07:41:21;;;;;;;4.63;4.23;;;13.50;99.90;;;;;;5009033;28;20752;-68
2022/05/30 07:43:47;;;;;;;5.90;5.07;;;13.60;99.90;;;;;;5016399;28;20420;-71
2022/05/30 07:46:15;;;;;;;5.50;4.77;;;13.50;99.90;;;;;;5024809;28;20408;-69
2022/05/30 07:48:41;;;;;;;9.00;4.90;;;13.50;99.90;;;;;;5017587;28;20422;-70
2022/05/30 07:51:08;;;;;;;5.23;4.83;;;13.70;99.90;;;;;;5020016;28;20929;-70
2022/05/30 07:53:36;;;;;;;5.10;4.60;;;13.70;99.90;;;;;;5005210;28;20453;-70
2022/05/30 07:56:09;;;;;;;3.83;3.40;;;13.70;99.90;;;;;;5023904;28;20402;-72
2022/05/30 07:58:36;;;;;;;3.53;3.23;;;13.80;99.90;;;;;;5015137;28;20455;-70
2022/05/30 08:01:03;;;;;;;5.13;3.60;;;14.10;99.90;;;;;;5004574;28;20431;-70
2022/05/30 08:03:29;;;;;;;6.40;3.93;;;14.00;99.90;;;;;;5019206;28;20440;-70
2022/05/30 08:06:12;;;;;;;4.10;3.80;;;14.00;99.90;;;;;;5004945;28;20423;-70
2022/05/30 08:08:41;;;;;;;7.40;3.83;;;14.40;99.90;;;;;;5018001;28;20182;-70
2022/05/30 08:11:08;;;;;;;6.60;3.73;;;14.30;99.90;;;;;;5014402;28;20468;-70
2022/05/30 08:13:34;;;;;;;3.40;3.00;;;14.20;99.90;;;;;;5027628;28;20456;-70
2022/05/30 08:16:00;;;;;;;4.23;3.20;;;14.20;99.90;;;;;;5025835;28;20420;-70
2022/05/30 08:18:27;;;;;;;4.33;3.53;;;14.40;99.90;;;;;;5008297;28;20419;-70
2022/05/30 08:20:53;;;;;;;2.90;2.60;;;14.70;99.90;;;;;;5013847;28;20492;-69
2022/05/30 08:23:19;;;;;;;3.63;3.03;;;14.90;99.90;;;;;;5010871;28;20982;-69
2022/05/30 08:25:47;;;;;;;3.50;2.47;;;15.00;99.90;;;;;;5023118;28;20417;-70
2022/05/30 08:28:13;;;;;;;3.60;2.47;;;15.10;99.90;;;;;;5027364;28;20183;-70
2022/05/30 08:30:39;;;;;;;4.60;2.77;;;15.00;99.90;;;;;;5024395;28;20470;-70
2022/05/30 08:33:12;;;;;;;3.90;3.43;;;15.10;99.60;;;;;;5027452;28;20417;-70
2022/05/30 08:35:38;;;;;;;4.77;3.20;;;14.90;99.90;;;;;;5013250;28;20190;-69
2022/05/30 08:38:04;;;;;;;2.70;2.13;;;14.90;99.90;;;;;;5008006;28;20587;-69
2022/05/30 08:43:22;;;;;;;3.83;2.90;;;15.40;99.70;;;;;;5025558;28;20400;-70
2022/05/30 08:45:49;;;;;;;3.43;2.70;;;15.50;99.30;;;;;;5017858;28;20967;-70
2022/05/30 08:48:29;;;;;;;2.80;1.90;;;15.20;98.30;;;;;;5013971;28;20412;-69
2022/05/30 08:51:15;;;;;;;3.43;2.20;;;14.90;97.70;;;;;;5020950;28;20440;-69
2022/05/30 08:53:58;;;;;;;3.40;1.70;;;15.30;98.50;;;;;;5027265;28;20405;-69
2022/05/30 08:56:34;;;;;;;3.40;2.10;;;15.60;96.10;;;;;;5017015;28;20904;-70
2022/05/30 08:59:21;;;;;;;2.47;1.80;;;15.60;95.80;;;;;;5009282;28;20455;-69
2022/05/30 09:01:55;;;;;;;3.87;1.90;;;15.70;94.90;;;;;;5018166;28;20903;-70
2022/05/30 09:04:41;;;;;;;5.90;2.27;;;15.80;95.80;;;;;;5021147;28;20387;-69
2022/05/30 09:07:13;;;;;;;3.03;2.00;;;16.00;94.90;;;;;;5014935;28;20397;-70
2022/05/30 09:09:55;;;;;;;5.57;2.30;;;15.90;94.40;;;;;;5014664;28;20460;-69
2022/05/30 09:12:32;;;;;;;2.90;2.10;;;15.80;94.20;;;;;;5016286;28;20442;-69
2022/05/30 09:15:03;;;;;;;3.87;2.40;;;15.70;93.90;;;;;;5022518;28;20486;-70
2022/05/30 09:17:38;;;;;;;3.20;1.90;;;15.90;93.90;;;;;;5016520;28;20805;-70
2022/05/30 09:20:08;;;;;;;3.03;1.70;;;15.90;92.80;;;;;;5020655;28;20493;-70
2022/05/30 09:22:35;;;;;;;2.17;1.97;;;15.80;93.40;;;;;;5013274;28;20415;-70
2022/05/30 09:27:45;;;;;;;2.57;1.83;;;16.10;93.30;;;;;;5016239;28;20399;-70
2022/05/30 09:30:19;;;;;;;2.13;1.80;;;16.50;92.90;;;;;;5021046;28;20441;-71
2022/05/30 09:32:58;;;;;;;2.73;1.60;;;16.60;90.80;;;;;;5025459;28;20196;-69
2022/05/30 09:35:33;;;;;;;4.67;2.00;;;16.70;90.90;;;;;;5019174;28;20441;-71
2022/05/30 09:38:19;;;;;;;1.93;1.73;;;16.60;90.20;;;;;;5015715;28;20421;-70
2022/05/30 09:40:49;;;;;;;3.43;1.90;;;16.50;85.60;;;;;;5019112;28;20460;-71
2022/05/30 09:43:43;;;;;;;2.90;1.53;;;16.30;89.50;;;;;;5020136;28;20468;-69
2022/05/30 09:46:25;;;;;;;4.93;2.00;;;16.40;87.80;;;;;;5023483;28;20406;-69
2022/05/30 09:49:13;;;;;;;2.30;1.43;;;16.60;88.70;;;;;;5006719;28;21238;-71
2022/05/30 09:51:48;;;;;;;1.80;1.67;;;16.60;86.60;;;;;;5021226;28;20927;-70
2022/05/30 09:54:23;;;;;;;1.90;1.43;;;16.80;87.20;;;;;;5013493;28;20403;-71
2022/05/30 09:56:52;;;;;;;3.70;1.93;;;16.90;86.50;;;;;;5024424;28;20419;-70
2022/05/30 09:59:32;;;;;;;2.90;1.30;;;17.20;88.50;;;;;;5025411;28;20461;-70
2022/05/30 10:01:58;;;;;;;1.80;1.43;;;17.40;84.00;;;;;;5024446;28;20417;-71
2022/05/30 10:04:34;;;;;;;3.40;1.57;;;17.50;82.70;;;;;;5018489;28;20969;-69
2022/05/30 10:07:17;;;;;;;2.00;1.77;;;17.50;80.90;;;;;;5016172;28;20433;-70
2022/05/30 10:09:57;;;;;;;2.40;1.60;;;18.00;81.10;;;;;;5008798;28;20446;-70
2022/05/30 10:12:34;;;;;;;5.90;2.00;;;18.20;78.70;;;;;;5006301;28;20415;-70
2022/05/30 10:14:59;;;;;;;2.50;1.60;;;18.30;81.50;;;;;;5015233;28;20449;-70
2022/05/30 10:17:33;;;;;;;4.23;1.50;;;18.30;73.80;;;;;;5013850;28;20426;-70
2022/05/30 10:20:02;;;;;;;3.97;1.30;;;18.20;73.70;;;;;;5025589;28;20228;-70
2022/05/30 10:28:40;;;;;;;3.07;1.43;;;18.00;77.30;;;;;;5011675;28;20445;-71
2022/05/30 10:31:38;;;;;;;4.43;2.23;;;18.10;76.80;;;;;;5017350;28;20434;-69
2022/05/30 10:34:35;;;;;;;2.00;1.80;;;18.20;75.30;;;;;;4982211;28;20419;-68
2022/05/30 10:37:18;;;;;;;2.10;1.30;;;18.40;75.80;;;;;;5015454;28;20898;-68
2022/05/30 10:39:58;;;;;;;3.80;1.27;;;18.50;74.10;;;;;;5024614;28;20462;-68
2022/05/30 10:42:39;;;;;;;5.17;1.53;;;18.20;75.90;;;;;;5016010;28;20428;-67
2022/05/30 10:45:24;;;;;;;3.17;1.23;;;18.50;75.00;;;;;;5014624;28;20407;-67
2022/05/30 10:47:53;;;;;;;2.13;1.20;;;19.10;72.20;;;;;;5015874;28;20449;-68
2022/05/30 10:50:22;;;;;;;2.10;1.47;;;19.20;71.30;;;;;;5010746;28;20786;-69
2022/05/30 10:52:56;;;;;;;4.30;1.60;;;18.80;66.80;;;;;;5009683;28;20731;-70
2022/05/30 10:55:42;;;;;;;4.37;1.10;;;18.70;67.80;;;;;;5024824;28;20418;-70
2022/05/30 10:58:32;;;;;;;1.67;1.10;;;19.10;64.50;;;;;;5014859;28;20410;-69
2022/05/30 11:01:06;;;;;;;1.60;1.00;;;18.80;62.60;;;;;;5021623;28;20470;-70
2022/05/30 11:03:45;;;;;;;1.67;1.37;;;18.50;65.80;;;;;;5014767;28;20461;-69
2022/05/30 11:06:17;;;;;;;2.27;1.47;;;18.80;65.60;;;;;;5013839;28;20490;-69
2022/05/30 11:08:58;;;;;;;1.57;1.37;;;18.70;62.90;;;;;;5005774;28;20434;-69
2022/05/30 11:11:42;;;;;;;2.60;1.40;;;18.60;63.10;;;;;;5019548;28;20499;-69
2022/05/30 11:14:08;;;;;;;2.67;1.40;;;18.90;63.70;;;;;;5022179;28;20441;-69
2022/05/30 11:16:56;;;;;;;2.50;1.00;;;18.90;63.20;;;;;;5019594;28;20417;-68
2022/05/30 11:19:30;;;;;;;2.67;1.50;;;18.50;64.70;;;;;;5016020;28;20544;-67
2022/05/30 11:22:01;;;;;;;2.67;1.40;;;19.40;65.60;;;;;;5021206;28;20541;-69
2022/05/30 11:24:27;;;;;;;1.70;1.40;;;19.30;64.90;;;;;;5008722;28;20456;-68
2022/05/30 11:27:08;;;;;;;4.80;1.57;;;19.20;64.10;;;;;;5016206;28;20481;-69
2022/05/30 11:30:07;;;;;;;1.60;1.43;;;19.30;63.80;;;;;;5013416;28;20438;-70
2022/05/30 11:32:45;;;;;;;1.67;1.57;;;19.20;64.40;;;;;;5016823;28;20457;-70
2022/05/30 11:35:38;;;;;;;2.13;1.20;;;18.80;63.20;;;;;;5012277;28;20433;-73
2022/05/30 11:38:16;;;;;;;3.70;1.60;;;18.50;64.10;;;;;;5017050;28;20445;-71
2022/05/30 11:41:11;;;;;;;1.40;1.03;;;18.90;66.50;;;;;;5022451;28;21067;-71
2022/05/30 11:43:59;;;;;;;2.57;1.37;;;19.60;62.20;;;;;;5012977;28;20482;-70
2022/05/30 11:46:47;;;;;;;5.27;1.50;;;19.50;60.90;;;;;;5021023;28;20414;-70
2022/05/30 11:49:19;;;;;;;2.53;1.70;;;19.70;60.70;;;;;;5020899;28;20487;-68
2022/05/30 11:52:07;;;;;;;1.83;1.33;;;19.90;60.50;;;;;;5021203;28;20421;-70
2022/05/30 11:55:11;;;;;;;2.90;1.40;;;20.10;58.90;;;;;;5027177;28;20437;-71
2022/05/30 11:57:42;;;;;;;3.43;1.50;;;20.40;57.70;;;;;;4974522;28;20478;-71
2022/05/30 12:00:33;;;;;;;1.87;1.60;;;20.30;62.20;;;;;;5028780;28;20469;-70
2022/05/30 12:03:04;;;;;;;2.87;1.53;;;21.80;58.70;;;;;;5008551;28;20403;-70
2022/05/30 12:06:09;;;;;;;3.23;1.70;;;24.30;53.10;;;;;;5008768;28;20891;-69
2022/05/30 12:09:02;;;;;;;1.70;1.30;;;25.40;50.50;;;;;;5015187;28;20414;-69
2022/05/30 12:11:37;;;;;;;3.13;1.40;;;26.20;47.00;;;;;;5009997;28;20450;-69
2022/05/30 12:14:25;;;;;;;3.93;1.73;;;26.60;47.10;;;;;;5028066;28;20431;-69
2022/05/30 12:17:12;;;;;;;1.33;1.23;;;27.10;42.90;;;;;;5015405;28;20403;-70
2022/05/30 12:25:57;;;;;;;2.13;1.40;;;28.10;41.70;;;;;;5008414;28;20502;-69
2022/05/30 12:28:34;;;;;;;1.97;1.27;;;27.60;41.70;;;;;;5027697;28;20505;-69
2022/05/30 12:31:03;;;;;;;1.67;1.27;;;26.70;42.80;;;;;;5024976;28;20286;-71
2022/05/30 12:33:29;;;;;;;3.83;3.40;;;26.00;43.30;;;;;;5008793;28;20414;-72
2022/05/30 12:36:10;;;;;;;1.93;1.73;;;26.20;43.50;;;;;;5024903;28;20944;-71
2022/05/30 12:38:51;;;;;;;3.33;1.97;;;26.00;43.30;;;;;;5024962;28;20186;-71
2022/05/30 12:41:31;;;;;;;1.73;1.10;;;23.70;45.30;;;;;;5014726;28;20450;-69
2022/05/30 12:43:58;;;;;;;2.80;1.40;;;23.40;45.90;;;;;;5025435;28;20490;-70
2022/05/30 12:46:30;;;;;;;4.73;1.60;;;25.00;46.00;;;;;;5025953;28;20413;-71
2022/05/30 12:49:13;;;;;;;1.60;1.37;;;26.20;44.10;;;;;;5011821;28;20399;-71
2022/05/30 12:51:38;;;;;;;2.47;1.23;;;25.70;43.30;;;;;;5010612;28;20395;-70
2022/05/30 12:54:04;;;;;;;4.20;1.20;;;24.80;45.90;;;;;;5012986;28;20410;-71
2022/05/30 12:56:41;;;;;;;2.30;1.40;;;24.90;47.30;;;;;;5007557;28;20190;-70
2022/05/30 12:59:16;;;;;;;1.90;1.40;;;25.80;43.40;;;;;;5005840;28;20222;-70
2022/05/30 13:01:44;;;;;;;3.50;1.60;;;25.40;42.80;;;;;;5007448;28;20410;-71
2022/05/30 13:04:16;;;;;;;3.13;1.37;;;25.70;44.30;;;;;;5007954;28;21418;-70
2022/05/30 13:07:01;;;;;;;3.50;1.50;;;26.50;42.90;;;;;;5011682;28;20406;-71
2022/05/30 13:09:37;;;;;;;3.70;1.73;;;26.30;41.70;;;;;;5015504;28;20465;-71
2022/05/30 13:12:14;;;;;;;2.27;1.43;;;24.80;41.90;;;;;;5018427;28;20540;-70
2022/05/30 13:14:48;;;;;;;2.73;1.53;;;25.70;43.40;;;;;;5014362;28;20429;-70
2022/05/30 13:17:26;;;;;;;2.00;1.70;;;27.20;41.40;;;;;;5025228;28;20424;-69
2022/05/30 13:20:09;;;;;;;2.40;1.80;;;27.20;39.00;;;;;;5008675;28;20915;-70
2022/05/30 13:22:53;;;;;;;2.73;1.30;;;26.20;43.10;;;;;;5007624;28;20395;-70
2022/05/30 13:25:26;;;;;;;2.07;1.40;;;27.80;40.50;;;;;;5038644;22;20612;-72
2022/05/30 13:27:51;;;;;;;2.63;1.80;;;26.40;39.60;;;;;;5024437;28;20407;-72
2022/05/30 13:30:29;;;;;;;2.07;1.50;;;26.40;40.80;;;;;;5017936;28;20438;-73
2022/05/30 13:32:55;;;;;;;2.27;1.60;;;26.10;42.00;;;;;;5006733;28;20214;-72
2022/05/30 13:35:30;;;;;;;3.57;1.60;;;25.40;42.30;;;;;;5007041;28;20431;-73